sensor_id;sensor_type;location;lat;lon;timestamp;temperature;humidity
8778;DHT22;4425;50.872;4.712;2023-05-07T00:01:33;15.60;99.90
8778;DHT22;4425;50.872;4.712;2023-05-07T00:04:00;15.60;99.90
8778;DHT22;4425;50.872;4.712;2023-05-07T00:06:32;15.60;99.90
8778;DHT22;4425;50.872;4.712;2023-05-07T00:08:59;15.50;99.90
8778;DHT22;4425;50.872;4.712;2023-05-07T00:11:30;15.50;99.90
8778;DHT22;4425;50.872;4.712;2023-05-07T00:13:59;15.60;99.90
8778;DHT22;4425;50.872;4.712;2023-05-07T00:16:28;15.60;99.90
8778;DHT22;4425;50.872;4.712;2023-05-07T00:18:57;15.60;99.90
8778;DHT22;4425;50.872;4.712;2023-05-07T00:21:25;15.60;99.90
8778;DHT22;4425;50.872;4.712;2023-05-07T00:23:52;15.60;99.90
8778;DHT22;4425;50.872;4.712;2023-05-07T00:26:20;15.60;99.90
8778;DHT22;4425;50.872;4.712;2023-05-07T00:28:47;15.60;99.90
8778;DHT22;4425;50.872;4.712;2023-05-07T00:31:15;15.60;99.90
8778;DHT22;4425;50.872;4.712;2023-05-07T00:33:44;15.70;99.90
8778;DHT22;4425;50.872;4.712;2023-05-07T00:36:11;15.70;99.90
8778;DHT22;4425;50.872;4.712;2023-05-07T00:39:03;15.60;99.90
8778;DHT22;4425;50.872;4.712;2023-05-07T00:41:30;15.60;99.90
8778;DHT22;4425;50.872;4.712;2023-05-07T00:43:58;15.60;99.90
8778;DHT22;4425;50.872;4.712;2023-05-07T00:46:26;15.50;99.90
8778;DHT22;4425;50.872;4.712;2023-05-07T00:48:56;15.50;99.90
8778;DHT22;4425;50.872;4.712;2023-05-07T00:51:25;15.50;99.90
8778;DHT22;4425;50.872;4.712;2023-05-07T00:53:53;15.40;99.90
8778;DHT22;4425;50.872;4.712;2023-05-07T00:56:21;15.40;99.90
8778;DHT22;4425;50.872;4.712;2023-05-07T00:58:48;15.40;99.90
8778;DHT22;4425;50.872;4.712;2023-05-07T01:01:16;15.30;99.90
8778;DHT22;4425;50.872;4.712;2023-05-07T01:03:43;15.30;99.90
8778;DHT22;4425;50.872;4.712;2023-05-07T01:06:14;15.30;99.90
8778;DHT22;4425;50.872;4.712;2023-05-07T01:08:43;15.30;99.90
8778;DHT22;4425;50.872;4.712;2023-05-07T01:11:11;15.40;99.90
8778;DHT22;4425;50.872;4.712;2023-05-07T01:13:39;15.40;99.90
8778;DHT22;4425;50.872;4.712;2023-05-07T01:16:09;15.40;99.90
8778;DHT22;4425;50.872;4.712;2023-05-07T01:18:37;15.40;99.90
8778;DHT22;4425;50.872;4.712;2023-05-07T01:21:04;15.30;99.90
8778;DHT22;4425;50.872;4.712;2023-05-07T01:23:34;15.30;99.90
8778;DHT22;4425;50.872;4.712;2023-05-07T01:26:02;15.40;99.90
8778;DHT22;4425;50.872;4.712;2023-05-07T01:28:30;15.30;99.90
8778;DHT22;4425;50.872;4.712;2023-05-07T01:31:02;15.30;99.90
8778;DHT22;4425;50.872;4.712;2023-05-07T01:33:35;15.30;99.90
8778;DHT22;4425;50.872;4.712;2023-05-07T01:36:05;15.30;99.90
8778;DHT22;4425;50.872;4.712;2023-05-07T01:38:36;15.40;99.90
8778;DHT22;4425;50.872;4.712;2023-05-07T01:41:04;15.40;99.90
8778;DHT22;4425;50.872;4.712;2023-05-07T01:43:34;15.30;99.90
8778;DHT22;4425;50.872;4.712;2023-05-07T01:46:03;15.30;99.90
8778;DHT22;4425;50.872;4.712;2023-05-07T01:48:32;15.30;99.90
8778;DHT22;4425;50.872;4.712;2023-05-07T01:51:00;15.40;99.90
8778;DHT22;4425;50.872;4.712;2023-05-07T01:53:37;15.30;99.90
8778;DHT22;4425;50.872;4.712;2023-05-07T01:56:05;15.30;99.90
8778;DHT22;4425;50.872;4.712;2023-05-07T01:58:58;15.30;99.90
8778;DHT22;4425;50.872;4.712;2023-05-07T02:01:27;15.40;99.90
8778;DHT22;4425;50.872;4.712;2023-05-07T02:03:54;15.40;99.90
8778;DHT22;4425;50.872;4.712;2023-05-07T02:06:22;15.40;99.90
8778;DHT22;4425;50.872;4.712;2023-05-07T02:08:51;15.40;99.90
8778;DHT22;4425;50.872;4.712;2023-05-07T02:11:20;15.40;99.90
8778;DHT22;4425;50.872;4.712;2023-05-07T02:13:47;15.40;99.90
8778;DHT22;4425;50.872;4.712;2023-05-07T02:16:15;15.40;99.90
8778;DHT22;4425;50.872;4.712;2023-05-07T02:18:45;15.40;99.90
8778;DHT22;4425;50.872;4.712;2023-05-07T02:21:13;15.40;99.90
8778;DHT22;4425;50.872;4.712;2023-05-07T02:23:40;15.40;99.90
8778;DHT22;4425;50.872;4.712;2023-05-07T02:26:09;15.40;99.90
8778;DHT22;4425;50.872;4.712;2023-05-07T02:28:37;15.50;99.90
8778;DHT22;4425;50.872;4.712;2023-05-07T02:31:05;15.50;99.90
8778;DHT22;4425;50.872;4.712;2023-05-07T02:33:33;15.50;99.90
8778;DHT22;4425;50.872;4.712;2023-05-07T02:36:06;15.40;99.90
8778;DHT22;4425;50.872;4.712;2023-05-07T02:38:33;15.40;99.90
8778;DHT22;4425;50.872;4.712;2023-05-07T02:44:43;15.20;99.90
8778;DHT22;4425;50.872;4.712;2023-05-07T02:47:10;15.20;99.90
8778;DHT22;4425;50.872;4.712;2023-05-07T02:49:38;15.10;99.90
8778;DHT22;4425;50.872;4.712;2023-05-07T02:52:07;15.10;99.90
8778;DHT22;4425;50.872;4.712;2023-05-07T02:54:35;15.10;99.90
8778;DHT22;4425;50.872;4.712;2023-05-07T02:57:05;15.10;99.90
8778;DHT22;4425;50.872;4.712;2023-05-07T02:59:34;15.10;99.90
8778;DHT22;4425;50.872;4.712;2023-05-07T03:02:07;15.20;99.90
8778;DHT22;4425;50.872;4.712;2023-05-07T03:04:34;15.20;99.90
8778;DHT22;4425;50.872;4.712;2023-05-07T03:07:02;15.20;99.90
8778;DHT22;4425;50.872;4.712;2023-05-07T03:09:31;15.20;99.90
8778;DHT22;4425;50.872;4.712;2023-05-07T03:11:58;15.20;99.90
8778;DHT22;4425;50.872;4.712;2023-05-07T03:14:27;15.30;99.90
8778;DHT22;4425;50.872;4.712;2023-05-07T03:16:55;15.30;99.90
8778;DHT22;4425;50.872;4.712;2023-05-07T03:19:24;15.30;99.90
8778;DHT22;4425;50.872;4.712;2023-05-07T03:21:56;15.30;99.90
8778;DHT22;4425;50.872;4.712;2023-05-07T03:24:23;15.20;99.90
8778;DHT22;4425;50.872;4.712;2023-05-07T03:26:50;15.30;99.90
8778;DHT22;4425;50.872;4.712;2023-05-07T03:29:17;15.20;99.90
8778;DHT22;4425;50.872;4.712;2023-05-07T03:31:45;15.30;99.90
8778;DHT22;4425;50.872;4.712;2023-05-07T03:34:12;15.20;99.90
8778;DHT22;4425;50.872;4.712;2023-05-07T03:36:41;15.20;99.90
8778;DHT22;4425;50.872;4.712;2023-05-07T03:39:12;15.20;99.90
8778;DHT22;4425;50.872;4.712;2023-05-07T03:41:39;15.20;99.90
8778;DHT22;4425;50.872;4.712;2023-05-07T03:44:06;15.20;99.90
8778;DHT22;4425;50.872;4.712;2023-05-07T03:46:34;15.30;99.90
8778;DHT22;4425;50.872;4.712;2023-05-07T03:49:01;15.30;99.90
8778;DHT22;4425;50.872;4.712;2023-05-07T03:51:29;15.30;99.90
8778;DHT22;4425;50.872;4.712;2023-05-07T03:53:57;15.20;99.90
8778;DHT22;4425;50.872;4.712;2023-05-07T03:56:24;15.20;99.90
8778;DHT22;4425;50.872;4.712;2023-05-07T03:58:53;15.20;99.90
8778;DHT22;4425;50.872;4.712;2023-05-07T04:01:20;15.20;99.90
8778;DHT22;4425;50.872;4.712;2023-05-07T04:03:49;15.20;99.90
8778;DHT22;4425;50.872;4.712;2023-05-07T04:06:17;15.20;99.90
8778;DHT22;4425;50.872;4.712;2023-05-07T04:08:45;15.10;99.90
8778;DHT22;4425;50.872;4.712;2023-05-07T04:11:16;15.10;99.90
8778;DHT22;4425;50.872;4.712;2023-05-07T04:13:43;15.10;99.90
8778;DHT22;4425;50.872;4.712;2023-05-07T04:16:10;15.10;99.90
8778;DHT22;4425;50.872;4.712;2023-05-07T04:18:37;15.10;99.90
8778;DHT22;4425;50.872;4.712;2023-05-07T04:21:05;15.10;99.90
8778;DHT22;4425;50.872;4.712;2023-05-07T04:23:33;15.10;99.90
8778;DHT22;4425;50.872;4.712;2023-05-07T04:26:00;15.10;99.90
8778;DHT22;4425;50.872;4.712;2023-05-07T04:28:30;15.10;99.90
8778;DHT22;4425;50.872;4.712;2023-05-07T04:30:57;15.10;99.90
8778;DHT22;4425;50.872;4.712;2023-05-07T04:33:25;15.10;99.90
8778;DHT22;4425;50.872;4.712;2023-05-07T04:35:52;15.10;99.90
8778;DHT22;4425;50.872;4.712;2023-05-07T04:38:19;15.10;99.90
8778;DHT22;4425;50.872;4.712;2023-05-07T04:40:46;15.20;99.90
8778;DHT22;4425;50.872;4.712;2023-05-07T04:43:17;15.20;99.90
8778;DHT22;4425;50.872;4.712;2023-05-07T04:45:57;15.20;99.90
8778;DHT22;4425;50.872;4.712;2023-05-07T04:48:26;15.20;99.90
8778;DHT22;4425;50.872;4.712;2023-05-07T04:50:54;15.20;99.90
8778;DHT22;4425;50.872;4.712;2023-05-07T04:53:22;15.30;99.90
8778;DHT22;4425;50.872;4.712;2023-05-07T04:55:54;15.20;99.90
8778;DHT22;4425;50.872;4.712;2023-05-07T04:58:22;15.20;99.90
8778;DHT22;4425;50.872;4.712;2023-05-07T05:00:52;15.30;99.90
8778;DHT22;4425;50.872;4.712;2023-05-07T05:03:20;15.30;99.90
8778;DHT22;4425;50.872;4.712;2023-05-07T05:05:49;15.40;99.90
8778;DHT22;4425;50.872;4.712;2023-05-07T05:08:17;15.40;99.90
8778;DHT22;4425;50.872;4.712;2023-05-07T05:10:44;15.40;99.90
8778;DHT22;4425;50.872;4.712;2023-05-07T05:13:11;15.40;99.90
8778;DHT22;4425;50.872;4.712;2023-05-07T05:15:40;15.40;99.90
8778;DHT22;4425;50.872;4.712;2023-05-07T05:18:10;15.40;99.90
8778;DHT22;4425;50.872;4.712;2023-05-07T05:20:39;15.40;99.90
8778;DHT22;4425;50.872;4.712;2023-05-07T05:23:08;15.50;99.90
8778;DHT22;4425;50.872;4.712;2023-05-07T05:25:35;15.60;99.90
8778;DHT22;4425;50.872;4.712;2023-05-07T05:28:04;15.70;99.90
8778;DHT22;4425;50.872;4.712;2023-05-07T05:30:32;15.80;99.90
8778;DHT22;4425;50.872;4.712;2023-05-07T05:33:04;15.90;99.90
8778;DHT22;4425;50.872;4.712;2023-05-07T05:35:32;15.90;99.90
8778;DHT22;4425;50.872;4.712;2023-05-07T05:38:02;16.00;99.90
8778;DHT22;4425;50.872;4.712;2023-05-07T05:40:29;16.00;99.90
8778;DHT22;4425;50.872;4.712;2023-05-07T05:42:57;15.90;99.90
8778;DHT22;4425;50.872;4.712;2023-05-07T05:45:24;15.90;99.90
8778;DHT22;4425;50.872;4.712;2023-05-07T05:47:51;15.90;99.90
8778;DHT22;4425;50.872;4.712;2023-05-07T05:50:19;15.90;99.90
8778;DHT22;4425;50.872;4.712;2023-05-07T05:52:46;15.80;99.90
8778;DHT22;4425;50.872;4.712;2023-05-07T05:55:17;15.80;99.90
8778;DHT22;4425;50.872;4.712;2023-05-07T05:57:44;15.90;99.90
8778;DHT22;4425;50.872;4.712;2023-05-07T06:00:12;15.90;99.90
8778;DHT22;4425;50.872;4.712;2023-05-07T06:02:39;16.10;99.90
8778;DHT22;4425;50.872;4.712;2023-05-07T06:05:08;16.30;99.90
8778;DHT22;4425;50.872;4.712;2023-05-07T06:07:36;16.30;99.90
8778;DHT22;4425;50.872;4.712;2023-05-07T06:10:04;16.30;99.90
8778;DHT22;4425;50.872;4.712;2023-05-07T06:12:37;16.40;99.90
8778;DHT22;4425;50.872;4.712;2023-05-07T06:15:06;16.40;99.90
8778;DHT22;4425;50.872;4.712;2023-05-07T06:17:36;16.40;99.90
8778;DHT22;4425;50.872;4.712;2023-05-07T06:20:04;16.40;99.90
8778;DHT22;4425;50.872;4.712;2023-05-07T06:22:31;16.40;99.90
8778;DHT22;4425;50.872;4.712;2023-05-07T06:24:59;16.40;99.90
8778;DHT22;4425;50.872;4.712;2023-05-07T06:27:28;16.50;99.90
8778;DHT22;4425;50.872;4.712;2023-05-07T06:29:57;16.50;99.90
8778;DHT22;4425;50.872;4.712;2023-05-07T06:32:24;16.50;99.90
8778;DHT22;4425;50.872;4.712;2023-05-07T06:34:54;16.60;99.90
8778;DHT22;4425;50.872;4.712;2023-05-07T06:37:21;16.70;99.90
8778;DHT22;4425;50.872;4.712;2023-05-07T06:39:48;16.70;99.90
8778;DHT22;4425;50.872;4.712;2023-05-07T06:42:15;16.80;99.90
8778;DHT22;4425;50.872;4.712;2023-05-07T06:44:42;16.90;99.90
8778;DHT22;4425;50.872;4.712;2023-05-07T06:50:56;16.80;99.90
8778;DHT22;4425;50.872;4.712;2023-05-07T06:53:23;16.60;99.90
8778;DHT22;4425;50.872;4.712;2023-05-07T06:55:51;16.60;99.90
8778;DHT22;4425;50.872;4.712;2023-05-07T06:58:21;16.60;99.90
8778;DHT22;4425;50.872;4.712;2023-05-07T07:00:49;16.60;99.90
8778;DHT22;4425;50.872;4.712;2023-05-07T07:03:16;16.60;99.90
8778;DHT22;4425;50.872;4.712;2023-05-07T07:05:43;16.70;99.90
8778;DHT22;4425;50.872;4.712;2023-05-07T07:08:12;16.80;99.90
8778;DHT22;4425;50.872;4.712;2023-05-07T07:10:40;16.90;99.90
8778;DHT22;4425;50.872;4.712;2023-05-07T07:13:07;17.00;99.90
8778;DHT22;4425;50.872;4.712;2023-05-07T07:15:34;17.10;99.90
8778;DHT22;4425;50.872;4.712;2023-05-07T07:18:03;17.10;99.90
8778;DHT22;4425;50.872;4.712;2023-05-07T07:20:31;17.20;99.90
8778;DHT22;4425;50.872;4.712;2023-05-07T07:22:58;17.30;99.90
8778;DHT22;4425;50.872;4.712;2023-05-07T07:25:28;17.30;99.90
8778;DHT22;4425;50.872;4.712;2023-05-07T07:27:55;17.30;99.90
8778;DHT22;4425;50.872;4.712;2023-05-07T07:30:22;17.50;99.90
8778;DHT22;4425;50.872;4.712;2023-05-07T07:32:49;17.60;99.90
8778;DHT22;4425;50.872;4.712;2023-05-07T07:35:17;17.70;99.90
8778;DHT22;4425;50.872;4.712;2023-05-07T07:37:44;17.80;99.90
8778;DHT22;4425;50.872;4.712;2023-05-07T07:40:12;17.80;99.90
8778;DHT22;4425;50.872;4.712;2023-05-07T07:42:41;17.90;99.90
8778;DHT22;4425;50.872;4.712;2023-05-07T07:45:10;17.90;99.90
8778;DHT22;4425;50.872;4.712;2023-05-07T07:47:37;18.00;99.90
8778;DHT22;4425;50.872;4.712;2023-05-07T07:50:05;18.00;99.90
8778;DHT22;4425;50.872;4.712;2023-05-07T07:52:33;18.00;99.90
8778;DHT22;4425;50.872;4.712;2023-05-07T07:55:01;18.10;99.90
8778;DHT22;4425;50.872;4.712;2023-05-07T07:57:28;18.10;99.90
8778;DHT22;4425;50.872;4.712;2023-05-07T08:00:01;18.10;99.90
8778;DHT22;4425;50.872;4.712;2023-05-07T08:02:29;18.10;99.90
8778;DHT22;4425;50.872;4.712;2023-05-07T08:04:56;18.20;99.90
8778;DHT22;4425;50.872;4.712;2023-05-07T08:07:24;18.20;99.90
8778;DHT22;4425;50.872;4.712;2023-05-07T08:09:51;18.20;99.90
8778;DHT22;4425;50.872;4.712;2023-05-07T08:12:19;18.30;99.90
8778;DHT22;4425;50.872;4.712;2023-05-07T08:14:46;18.20;99.90
8778;DHT22;4425;50.872;4.712;2023-05-07T08:17:15;18.30;99.90
8778;DHT22;4425;50.872;4.712;2023-05-07T08:19:43;18.30;99.90
8778;DHT22;4425;50.872;4.712;2023-05-07T08:22:10;18.40;99.90
8778;DHT22;4425;50.872;4.712;2023-05-07T08:24:38;18.40;99.90
8778;DHT22;4425;50.872;4.712;2023-05-07T08:27:06;18.40;99.90
8778;DHT22;4425;50.872;4.712;2023-05-07T08:29:34;18.50;99.90
8778;DHT22;4425;50.872;4.712;2023-05-07T08:32:01;18.40;99.90
8778;DHT22;4425;50.872;4.712;2023-05-07T08:34:29;18.40;99.90
8778;DHT22;4425;50.872;4.712;2023-05-07T08:36:57;18.50;99.90
8778;DHT22;4425;50.872;4.712;2023-05-07T08:39:24;18.50;99.90
8778;DHT22;4425;50.872;4.712;2023-05-07T08:41:55;18.60;99.90
8778;DHT22;4425;50.872;4.712;2023-05-07T08:44:26;18.80;99.90
8778;DHT22;4425;50.872;4.712;2023-05-07T08:46:56;18.90;99.90
8778;DHT22;4425;50.872;4.712;2023-05-07T08:49:23;18.90;99.90
8778;DHT22;4425;50.872;4.712;2023-05-07T08:51:52;18.80;99.90
8778;DHT22;4425;50.872;4.712;2023-05-07T08:54:20;18.70;99.90
8778;DHT22;4425;50.872;4.712;2023-05-07T08:56:48;18.60;99.90
8778;DHT22;4425;50.872;4.712;2023-05-07T08:59:15;18.60;99.90
8778;DHT22;4425;50.872;4.712;2023-05-07T09:01:42;18.60;99.90
8778;DHT22;4425;50.872;4.712;2023-05-07T09:04:10;18.70;99.90
8778;DHT22;4425;50.872;4.712;2023-05-07T09:06:38;18.60;99.90
8778;DHT22;4425;50.872;4.712;2023-05-07T09:09:10;18.60;99.90
8778;DHT22;4425;50.872;4.712;2023-05-07T09:11:41;18.50;99.90
8778;DHT22;4425;50.872;4.712;2023-05-07T09:14:08;18.40;99.90
8778;DHT22;4425;50.872;4.712;2023-05-07T09:16:36;18.40;99.90
8778;DHT22;4425;50.872;4.712;2023-05-07T09:19:03;18.40;99.90
8778;DHT22;4425;50.872;4.712;2023-05-07T09:21:31;18.30;99.90
8778;DHT22;4425;50.872;4.712;2023-05-07T09:23:58;18.40;99.90
8778;DHT22;4425;50.872;4.712;2023-05-07T09:26:27;18.30;99.90
8778;DHT22;4425;50.872;4.712;2023-05-07T09:28:55;18.40;99.90
8778;DHT22;4425;50.872;4.712;2023-05-07T09:31:22;18.50;99.90
8778;DHT22;4425;50.872;4.712;2023-05-07T09:33:52;18.50;99.90
8778;DHT22;4425;50.872;4.712;2023-05-07T09:36:21;18.40;99.90
8778;DHT22;4425;50.872;4.712;2023-05-07T09:38:48;18.30;99.90
8778;DHT22;4425;50.872;4.712;2023-05-07T09:41:16;18.40;99.90
8778;DHT22;4425;50.872;4.712;2023-05-07T09:43:45;18.50;99.90
8778;DHT22;4425;50.872;4.712;2023-05-07T09:46:14;18.60;99.90
8778;DHT22;4425;50.872;4.712;2023-05-07T09:48:43;18.60;99.90
8778;DHT22;4425;50.872;4.712;2023-05-07T09:51:20;18.60;99.90
8778;DHT22;4425;50.872;4.712;2023-05-07T09:53:49;18.60;99.90
8778;DHT22;4425;50.872;4.712;2023-05-07T09:56:18;18.70;99.90
8778;DHT22;4425;50.872;4.712;2023-05-07T09:58:47;18.70;99.90
8778;DHT22;4425;50.872;4.712;2023-05-07T10:01:17;18.70;99.90
8778;DHT22;4425;50.872;4.712;2023-05-07T10:03:48;18.60;99.90
8778;DHT22;4425;50.872;4.712;2023-05-07T10:06:17;18.60;99.90
8778;DHT22;4425;50.872;4.712;2023-05-07T10:08:48;18.60;99.90
8778;DHT22;4425;50.872;4.712;2023-05-07T10:11:18;18.60;99.90
8778;DHT22;4425;50.872;4.712;2023-05-07T10:13:52;18.60;99.90
8778;DHT22;4425;50.872;4.712;2023-05-07T10:16:21;18.70;99.90
8778;DHT22;4425;50.872;4.712;2023-05-07T10:18:51;18.70;99.90
8778;DHT22;4425;50.872;4.712;2023-05-07T10:21:24;18.70;99.90
8778;DHT22;4425;50.872;4.712;2023-05-07T10:24:04;18.70;99.90
8778;DHT22;4425;50.872;4.712;2023-05-07T10:26:36;18.70;99.90
8778;DHT22;4425;50.872;4.712;2023-05-07T10:29:10;18.70;99.90
8778;DHT22;4425;50.872;4.712;2023-05-07T10:31:54;18.70;99.90
8778;DHT22;4425;50.872;4.712;2023-05-07T10:34:27;18.70;99.90
8778;DHT22;4425;50.872;4.712;2023-05-07T10:36:55;18.70;99.90
8778;DHT22;4425;50.872;4.712;2023-05-07T10:39:26;18.70;99.90
8778;DHT22;4425;50.872;4.712;2023-05-07T10:41:54;18.70;99.90
8778;DHT22;4425;50.872;4.712;2023-05-07T10:44:29;18.80;99.90
8778;DHT22;4425;50.872;4.712;2023-05-07T10:47:09;18.90;99.90
8778;DHT22;4425;50.872;4.712;2023-05-07T10:49:51;19.00;99.90
8778;DHT22;4425;50.872;4.712;2023-05-07T10:56:24;19.10;99.90
8778;DHT22;4425;50.872;4.712;2023-05-07T10:58:52;19.10;99.90
8778;DHT22;4425;50.872;4.712;2023-05-07T11:04:27;18.90;99.90
8778;DHT22;4425;50.872;4.712;2023-05-07T11:10:05;19.10;99.90
8778;DHT22;4425;50.872;4.712;2023-05-07T11:12:55;19.10;99.90
8778;DHT22;4425;50.872;4.712;2023-05-07T11:15:37;19.10;99.90
8778;DHT22;4425;50.872;4.712;2023-05-07T11:18:05;19.20;99.90
8778;DHT22;4425;50.872;4.712;2023-05-07T11:21:04;19.10;99.90
8778;DHT22;4425;50.872;4.712;2023-05-07T11:23:55;19.10;99.90
8778;DHT22;4425;50.872;4.712;2023-05-07T11:26:30;19.10;99.90
8778;DHT22;4425;50.872;4.712;2023-05-07T11:28:59;19.00;99.90
8778;DHT22;4425;50.872;4.712;2023-05-07T11:31:28;19.00;99.90
8778;DHT22;4425;50.872;4.712;2023-05-07T11:33:55;19.00;99.90
8778;DHT22;4425;50.872;4.712;2023-05-07T11:36:31;18.90;99.90
8778;DHT22;4425;50.872;4.712;2023-05-07T11:38:59;18.80;99.90
8778;DHT22;4425;50.872;4.712;2023-05-07T11:41:34;19.00;99.90
8778;DHT22;4425;50.872;4.712;2023-05-07T11:44:04;19.10;99.90
8778;DHT22;4425;50.872;4.712;2023-05-07T11:46:31;19.10;99.90
8778;DHT22;4425;50.872;4.712;2023-05-07T11:49:00;19.20;99.90
8778;DHT22;4425;50.872;4.712;2023-05-07T11:51:31;19.20;99.90
8778;DHT22;4425;50.872;4.712;2023-05-07T11:53:59;19.30;99.90
8778;DHT22;4425;50.872;4.712;2023-05-07T11:56:26;19.50;99.90
8778;DHT22;4425;50.872;4.712;2023-05-07T11:58:53;19.40;99.90
8778;DHT22;4425;50.872;4.712;2023-05-07T12:01:20;19.60;99.90
8778;DHT22;4425;50.872;4.712;2023-05-07T12:03:47;19.50;99.90
8778;DHT22;4425;50.872;4.712;2023-05-07T12:06:16;19.60;99.90
8778;DHT22;4425;50.872;4.712;2023-05-07T12:08:53;19.60;99.90
8778;DHT22;4425;50.872;4.712;2023-05-07T12:11:26;19.40;99.90
8778;DHT22;4425;50.872;4.712;2023-05-07T12:13:54;19.40;99.90
8778;DHT22;4425;50.872;4.712;2023-05-07T12:16:22;19.50;99.90
8778;DHT22;4425;50.872;4.712;2023-05-07T12:18:53;19.50;99.90
8778;DHT22;4425;50.872;4.712;2023-05-07T12:21:33;19.40;99.90
8778;DHT22;4425;50.872;4.712;2023-05-07T12:24:06;19.50;99.90
8778;DHT22;4425;50.872;4.712;2023-05-07T12:26:46;19.40;99.90
8778;DHT22;4425;50.872;4.712;2023-05-07T12:29:21;19.40;99.90
8778;DHT22;4425;50.872;4.712;2023-05-07T12:32:00;19.30;99.90
8778;DHT22;4425;50.872;4.712;2023-05-07T12:34:34;19.30;99.90
8778;DHT22;4425;50.872;4.712;2023-05-07T12:37:04;19.20;99.90
8778;DHT22;4425;50.872;4.712;2023-05-07T12:39:33;19.20;99.90
8778;DHT22;4425;50.872;4.712;2023-05-07T12:42:01;19.20;99.90
8778;DHT22;4425;50.872;4.712;2023-05-07T12:44:30;19.30;99.90
8778;DHT22;4425;50.872;4.712;2023-05-07T12:46:58;19.50;99.90
8778;DHT22;4425;50.872;4.712;2023-05-07T12:49:26;19.40;99.90
8778;DHT22;4425;50.872;4.712;2023-05-07T12:51:53;19.40;99.90
8778;DHT22;4425;50.872;4.712;2023-05-07T12:57:39;19.50;99.90
8778;DHT22;4425;50.872;4.712;2023-05-07T13:00:08;19.80;99.90
8778;DHT22;4425;50.872;4.712;2023-05-07T13:02:38;19.90;99.90
8778;DHT22;4425;50.872;4.712;2023-05-07T13:05:06;20.10;99.90
8778;DHT22;4425;50.872;4.712;2023-05-07T13:07:34;20.20;99.90
8778;DHT22;4425;50.872;4.712;2023-05-07T13:10:04;20.40;99.90
8778;DHT22;4425;50.872;4.712;2023-05-07T13:12:31;20.40;99.90
8778;DHT22;4425;50.872;4.712;2023-05-07T13:15:00;20.40;99.90
8778;DHT22;4425;50.872;4.712;2023-05-07T13:17:27;20.40;99.90
8778;DHT22;4425;50.872;4.712;2023-05-07T13:19:56;20.40;99.90
8778;DHT22;4425;50.872;4.712;2023-05-07T13:22:23;20.40;99.90
8778;DHT22;4425;50.872;4.712;2023-05-07T13:24:51;20.40;99.90
8778;DHT22;4425;50.872;4.712;2023-05-07T13:27:18;20.30;99.90
8778;DHT22;4425;50.872;4.712;2023-05-07T13:29:46;20.30;99.90
8778;DHT22;4425;50.872;4.712;2023-05-07T13:32:25;20.30;99.90
8778;DHT22;4425;50.872;4.712;2023-05-07T13:34:56;20.20;99.90
8778;DHT22;4425;50.872;4.712;2023-05-07T13:37:23;19.90;99.90
8778;DHT22;4425;50.872;4.712;2023-05-07T13:39:50;20.00;99.90
8778;DHT22;4425;50.872;4.712;2023-05-07T13:42:21;20.10;99.90
8778;DHT22;4425;50.872;4.712;2023-05-07T13:44:49;20.20;99.90
8778;DHT22;4425;50.872;4.712;2023-05-07T13:47:19;20.30;99.90
8778;DHT22;4425;50.872;4.712;2023-05-07T13:49:47;20.10;99.90
8778;DHT22;4425;50.872;4.712;2023-05-07T13:52:15;20.00;99.90
8778;DHT22;4425;50.872;4.712;2023-05-07T13:54:43;19.90;99.90
8778;DHT22;4425;50.872;4.712;2023-05-07T13:57:10;19.90;99.90
8778;DHT22;4425;50.872;4.712;2023-05-07T13:59:38;19.90;99.90
8778;DHT22;4425;50.872;4.712;2023-05-07T14:02:06;20.00;99.90
8778;DHT22;4425;50.872;4.712;2023-05-07T14:04:36;20.10;99.90
8778;DHT22;4425;50.872;4.712;2023-05-07T14:07:04;20.10;99.90
8778;DHT22;4425;50.872;4.712;2023-05-07T14:09:32;20.10;99.90
8778;DHT22;4425;50.872;4.712;2023-05-07T14:11:59;20.00;99.90
8778;DHT22;4425;50.872;4.712;2023-05-07T14:14:27;20.10;99.90
8778;DHT22;4425;50.872;4.712;2023-05-07T14:16:54;20.10;99.90
8778;DHT22;4425;50.872;4.712;2023-05-07T14:19:22;20.10;99.90
8778;DHT22;4425;50.872;4.712;2023-05-07T14:21:54;20.20;99.90
8778;DHT22;4425;50.872;4.712;2023-05-07T14:24:21;20.20;99.90
8778;DHT22;4425;50.872;4.712;2023-05-07T14:26:52;20.10;99.90
8778;DHT22;4425;50.872;4.712;2023-05-07T14:29:20;20.20;99.90
8778;DHT22;4425;50.872;4.712;2023-05-07T14:31:51;20.20;99.90
8778;DHT22;4425;50.872;4.712;2023-05-07T14:34:18;20.20;99.90
8778;DHT22;4425;50.872;4.712;2023-05-07T14:36:45;20.20;99.90
8778;DHT22;4425;50.872;4.712;2023-05-07T14:39:15;20.10;99.90
8778;DHT22;4425;50.872;4.712;2023-05-07T14:41:43;20.10;99.90
8778;DHT22;4425;50.872;4.712;2023-05-07T14:44:10;20.10;99.90
8778;DHT22;4425;50.872;4.712;2023-05-07T14:46:37;20.20;99.90
8778;DHT22;4425;50.872;4.712;2023-05-07T14:49:04;20.20;99.90
8778;DHT22;4425;50.872;4.712;2023-05-07T14:51:33;20.30;99.90
8778;DHT22;4425;50.872;4.712;2023-05-07T14:54:00;20.20;99.90
8778;DHT22;4425;50.872;4.712;2023-05-07T14:56:31;20.30;99.90
8778;DHT22;4425;50.872;4.712;2023-05-07T15:02:12;20.30;99.90
8778;DHT22;4425;50.872;4.712;2023-05-07T15:04:39;20.30;99.90
8778;DHT22;4425;50.872;4.712;2023-05-07T15:07:11;20.20;99.90
8778;DHT22;4425;50.872;4.712;2023-05-07T15:09:40;20.10;99.90
8778;DHT22;4425;50.872;4.712;2023-05-07T15:12:09;20.00;99.90
8778;DHT22;4425;50.872;4.712;2023-05-07T15:14:39;19.90;99.90
8778;DHT22;4425;50.872;4.712;2023-05-07T15:17:06;19.70;99.90
8778;DHT22;4425;50.872;4.712;2023-05-07T15:19:34;19.70;99.90
8778;DHT22;4425;50.872;4.712;2023-05-07T15:22:01;19.60;99.90
8778;DHT22;4425;50.872;4.712;2023-05-07T15:24:29;19.50;99.90
8778;DHT22;4425;50.872;4.712;2023-05-07T15:26:59;19.40;99.90
8778;DHT22;4425;50.872;4.712;2023-05-07T15:29:28;19.40;99.90
8778;DHT22;4425;50.872;4.712;2023-05-07T15:31:55;19.40;99.90
8778;DHT22;4425;50.872;4.712;2023-05-07T15:34:23;19.40;99.90
8778;DHT22;4425;50.872;4.712;2023-05-07T15:36:50;19.30;99.90
8778;DHT22;4425;50.872;4.712;2023-05-07T15:39:20;19.30;99.90
8778;DHT22;4425;50.872;4.712;2023-05-07T15:41:47;19.30;99.90
8778;DHT22;4425;50.872;4.712;2023-05-07T15:44:14;19.30;99.90
8778;DHT22;4425;50.872;4.712;2023-05-07T15:46:47;19.30;99.90
8778;DHT22;4425;50.872;4.712;2023-05-07T15:49:15;19.20;99.90
8778;DHT22;4425;50.872;4.712;2023-05-07T15:51:43;19.20;99.90
8778;DHT22;4425;50.872;4.712;2023-05-07T15:54:10;19.20;99.90
8778;DHT22;4425;50.872;4.712;2023-05-07T15:56:42;19.20;99.90
8778;DHT22;4425;50.872;4.712;2023-05-07T15:59:09;19.10;99.90
8778;DHT22;4425;50.872;4.712;2023-05-07T16:01:37;19.10;99.90
8778;DHT22;4425;50.872;4.712;2023-05-07T16:04:09;19.20;99.90
8778;DHT22;4425;50.872;4.712;2023-05-07T16:06:36;19.10;99.90
8778;DHT22;4425;50.872;4.712;2023-05-07T16:09:04;19.10;99.90
8778;DHT22;4425;50.872;4.712;2023-05-07T16:11:31;19.10;99.90
8778;DHT22;4425;50.872;4.712;2023-05-07T16:13:59;19.10;99.90
8778;DHT22;4425;50.872;4.712;2023-05-07T16:16:26;19.00;99.90
8778;DHT22;4425;50.872;4.712;2023-05-07T16:18:54;19.00;99.90
8778;DHT22;4425;50.872;4.712;2023-05-07T16:21:23;19.00;99.90
8778;DHT22;4425;50.872;4.712;2023-05-07T16:23:50;19.00;99.90
8778;DHT22;4425;50.872;4.712;2023-05-07T16:26:18;19.10;99.90
8778;DHT22;4425;50.872;4.712;2023-05-07T16:28:45;19.10;99.90
8778;DHT22;4425;50.872;4.712;2023-05-07T16:31:13;19.10;99.90
8778;DHT22;4425;50.872;4.712;2023-05-07T16:33:40;19.20;99.90
8778;DHT22;4425;50.872;4.712;2023-05-07T16:36:08;19.40;99.90
8778;DHT22;4425;50.872;4.712;2023-05-07T16:38:37;19.40;99.90